createdAt,value
2019-01-28T00:00:38.139Z,97175.33
2019-01-28T00:03:05.499Z,97176.32
2019-01-28T00:05:32.110Z,97185.62
2019-01-28T00:07:58.457Z,97195.87
2019-01-28T00:10:24.786Z,97196.19
2019-01-28T00:12:51.345Z,97200.27
2019-01-28T00:15:17.678Z,97198.98
2019-01-28T00:17:44.271Z,97199.14
2019-01-28T00:20:10.791Z,97195.70
2019-01-28T00:22:37.111Z,97206.56
2019-01-28T00:25:06.281Z,97205.26
2019-01-28T00:27:32.906Z,97200.98
2019-01-28T00:29:59.193Z,97207.16
2019-01-28T00:32:25.532Z,97202.09
2019-01-28T00:34:51.849Z,97206.34
2019-01-28T00:37:18.424Z,97209.91
2019-01-28T00:39:44.752Z,97212.03
2019-01-28T00:42:11.059Z,97206.97
2019-01-28T00:44:37.369Z,97206.48
2019-01-28T00:47:03.677Z,97208.16
2019-01-28T00:49:30.274Z,97206.04
2019-01-28T00:51:56.583Z,97209.46
2019-01-28T00:54:22.889Z,97203.63
2019-01-28T00:56:49.209Z,97213.70
2019-01-28T00:59:15.517Z,97209.38
2019-01-28T01:01:42.143Z,97215.58
2019-01-28T01:04:08.483Z,97214.44
2019-01-28T01:06:34.861Z,97214.77
2019-01-28T01:09:01.514Z,97218.20
2019-01-28T01:11:29.741Z,97220.45
2019-01-28T01:13:56.101Z,97225.48
2019-01-28T01:16:22.657Z,97226.94
2019-01-28T01:18:49.010Z,97225.13
2019-01-28T01:21:15.554Z,97230.66
2019-01-28T01:23:42.153Z,97231.81
2019-01-28T01:26:08.698Z,97233.27
2019-01-28T01:28:35.023Z,97231.15
2019-01-28T01:31:01.671Z,97230.52
2019-01-28T01:33:28.015Z,97237.62
2019-01-28T01:35:54.340Z,97239.27
2019-01-28T01:38:20.748Z,97239.11
2019-01-28T01:40:47.178Z,97238.81
2019-01-28T01:43:13.510Z,97235.72
2019-01-28T01:45:39.832Z,97236.06
2019-01-28T01:48:06.635Z,97244.17
2019-01-28T01:50:33.219Z,97242.27
2019-01-28T01:52:59.541Z,97240.81
2019-01-28T01:55:25.836Z,97249.47
2019-01-28T01:57:52.166Z,97247.66
2019-01-28T02:00:19.045Z,97251.87
2019-01-28T02:02:45.567Z,97259.34
2019-01-28T02:05:12.070Z,97261.66
2019-01-28T02:07:38.625Z,97263.44
2019-01-28T02:10:09.638Z,97270.62
2019-01-28T02:12:36.293Z,97270.80
2019-01-28T02:15:07.764Z,97274.86
2019-01-28T02:17:34.360Z,97284.13
2019-01-28T02:20:00.929Z,97282.31
2019-01-28T02:22:27.218Z,97288.45
2019-01-28T02:24:53.537Z,97297.75
2019-01-28T02:27:19.835Z,97307.02
2019-01-28T02:29:46.184Z,97312.85
2019-01-28T02:32:12.488Z,97315.54
2019-01-28T02:34:38.823Z,97322.26
2019-01-28T02:37:05.121Z,97339.52
2019-01-28T02:39:31.468Z,97342.02
2019-01-28T02:41:57.808Z,97341.15
2019-01-28T02:44:24.403Z,97356.86
2019-01-28T02:46:50.965Z,97367.03
2019-01-28T02:49:17.288Z,97367.38
2019-01-28T02:51:43.863Z,97379.31
2019-01-28T02:54:10.464Z,97382.25
2019-01-28T02:56:36.788Z,97382.27
2019-01-28T02:59:03.200Z,97404.28
2019-01-28T03:01:29.539Z,97392.61
2019-01-28T03:03:55.874Z,97407.13
2019-01-28T03:06:22.189Z,97399.83
2019-01-28T03:08:48.536Z,97407.81
2019-01-28T03:11:15.071Z,97412.13
2019-01-28T03:13:41.659Z,97413.55
2019-01-28T03:16:08.000Z,97419.59
2019-01-28T03:18:34.349Z,97417.09
2019-01-28T03:21:00.687Z,97421.53
2019-01-28T03:23:27.608Z,97431.42
2019-01-28T03:25:53.924Z,97430.61
2019-01-28T03:28:20.221Z,97440.48
2019-01-28T03:30:46.560Z,97441.64
2019-01-28T03:33:12.849Z,97452.91
2019-01-28T03:35:39.163Z,97458.17
2019-01-28T03:38:05.494Z,97457.64
2019-01-28T03:40:32.078Z,97455.79
2019-01-28T03:42:58.649Z,97465.14
2019-01-28T03:45:25.003Z,97472.48
2019-01-28T03:47:51.350Z,97468.80
2019-01-28T03:50:17.846Z,97482.10
2019-01-28T03:52:45.051Z,97488.26
2019-01-28T03:55:11.867Z,97483.19
2019-01-28T03:57:38.311Z,97481.36
2019-01-28T04:00:10.462Z,97489.15
2019-01-28T04:02:36.872Z,97491.31
2019-01-28T04:05:07.246Z,97491.50
2019-01-28T04:07:33.589Z,97496.24
2019-01-28T04:09:59.896Z,97495.30
2019-01-28T04:12:26.210Z,97496.77
2019-01-28T04:14:52.524Z,97491.10
2019-01-28T04:17:19.102Z,97492.00
2019-01-28T04:19:45.435Z,97490.45
2019-01-28T04:22:11.762Z,97494.35
2019-01-28T04:24:38.347Z,97496.60
2019-01-28T04:27:04.918Z,97493.99
2019-01-28T04:29:31.511Z,97499.88
2019-01-28T04:31:57.808Z,97507.67
2019-01-28T04:34:24.143Z,97504.91
2019-01-28T04:36:50.481Z,97503.44
2019-01-28T04:39:16.779Z,97502.53
2019-01-28T04:41:43.114Z,97501.52
2019-01-28T04:44:09.418Z,97497.14
2019-01-28T04:46:35.998Z,97497.97
2019-01-28T04:49:02.560Z,97494.17
2019-01-28T04:51:30.678Z,97492.53
2019-01-28T04:53:57.359Z,97500.87
2019-01-28T04:56:23.695Z,97495.77
2019-01-28T04:58:50.027Z,97492.63
2019-01-28T05:01:16.601Z,97495.44
2019-01-28T05:03:43.202Z,97491.89
2019-01-28T05:06:10.766Z,97482.78
2019-01-28T05:08:37.461Z,97486.28
2019-01-28T05:11:03.784Z,97483.27
2019-01-28T05:13:30.402Z,97482.39
2019-01-28T05:15:56.903Z,97488.00
2019-01-28T05:18:23.226Z,97487.38
2019-01-28T05:20:49.968Z,97487.32
2019-01-28T05:23:16.327Z,97485.94
2019-01-28T05:25:42.788Z,97493.95
2019-01-28T05:28:09.361Z,97490.66
2019-01-28T05:30:35.690Z,97491.95
2019-01-28T05:33:02.572Z,97488.95
2019-01-28T05:35:29.182Z,97491.33
2019-01-28T05:37:55.801Z,97498.51
2019-01-28T05:40:23.836Z,97500.69
2019-01-28T05:42:50.357Z,97500.56
2019-01-28T05:45:20.713Z,97502.40
2019-01-28T05:47:47.522Z,97505.47
2019-01-28T05:50:15.126Z,97502.75
2019-01-28T05:52:41.466Z,97500.81
2019-01-28T05:55:11.933Z,97500.63
2019-01-28T05:57:38.249Z,97491.20
2019-01-28T06:00:16.019Z,97496.33
2019-01-28T06:02:42.677Z,97498.16
2019-01-28T06:05:09.793Z,97501.09
2019-01-28T06:07:36.414Z,97495.72
2019-01-28T06:10:10.433Z,97495.78
2019-01-28T06:12:36.757Z,97501.58
2019-01-28T06:15:10.920Z,97499.18
2019-01-28T06:17:39.022Z,97507.38
2019-01-28T06:20:14.078Z,97507.24
2019-01-28T06:22:40.411Z,97507.15
2019-01-28T06:25:07.035Z,97507.02
2019-01-28T06:27:33.760Z,97503.83
2019-01-28T06:30:00.092Z,97502.72
2019-01-28T06:32:26.604Z,97501.14
2019-01-28T06:34:52.905Z,97510.16
2019-01-28T06:37:19.360Z,97511.16
2019-01-28T06:39:45.918Z,97509.86
2019-01-28T06:42:14.377Z,97513.11
2019-01-28T06:44:40.983Z,97524.83
2019-01-28T06:47:07.275Z,97521.23
2019-01-28T06:49:33.639Z,97523.58
2019-01-28T06:51:59.920Z,97527.94
2019-01-28T06:54:26.271Z,97529.83
2019-01-28T06:56:53.592Z,97527.59
2019-01-28T06:59:19.951Z,97530.61
2019-01-28T07:01:46.285Z,97530.66
2019-01-28T07:04:12.878Z,97523.77
2019-01-28T07:06:39.196Z,97519.82
2019-01-28T07:09:07.415Z,97526.84
2019-01-28T07:11:34.010Z,97528.41
2019-01-28T07:14:00.573Z,97528.41
2019-01-28T07:16:26.891Z,97525.70
2019-01-28T07:18:53.192Z,97526.07
2019-01-28T07:21:19.539Z,97529.36
2019-01-28T07:23:46.123Z,97533.77
2019-01-28T07:26:12.458Z,97537.53
2019-01-28T07:28:38.774Z,97542.39
2019-01-28T07:31:05.467Z,97535.19
2019-01-28T07:33:32.028Z,97542.48
2019-01-28T07:35:59.346Z,97544.33
2019-01-28T07:38:25.675Z,97537.60
2019-01-28T07:40:52.244Z,97534.56
2019-01-28T07:43:18.823Z,97535.72
2019-01-28T07:45:45.885Z,97531.66
2019-01-28T07:48:12.239Z,97533.44
2019-01-28T07:50:38.557Z,97530.49
2019-01-28T07:53:04.867Z,97532.19
2019-01-28T07:55:31.496Z,97536.91
2019-01-28T07:57:58.116Z,97530.00
2019-01-28T08:00:29.704Z,97533.84
2019-01-28T08:02:56.403Z,97523.77
2019-01-28T08:05:23.346Z,97522.17
2019-01-28T08:07:49.645Z,97518.88
2019-01-28T08:10:18.687Z,97522.30
2019-01-28T08:12:45.735Z,97524.64
2019-01-28T08:15:15.548Z,97517.69
2019-01-28T08:17:42.107Z,97522.60
2019-01-28T08:20:12.437Z,97524.30
2019-01-28T08:22:39.752Z,97529.89
2019-01-28T08:25:13.147Z,97525.70
2019-01-28T08:27:39.581Z,97530.00
2019-01-28T08:30:34.537Z,97532.66
2019-01-28T08:33:02.850Z,97538.80
2019-01-28T08:35:32.105Z,97532.37
2019-01-28T08:37:58.777Z,97535.48
2019-01-28T08:40:25.425Z,97540.16
2019-01-28T08:42:51.978Z,97540.31
2019-01-28T08:45:18.309Z,97536.67
2019-01-28T08:47:44.875Z,97540.63
2019-01-28T08:50:27.810Z,97539.02
2019-01-28T08:52:54.665Z,97542.53
2019-01-28T08:55:26.614Z,97557.15
2019-01-28T08:57:53.624Z,97549.84
2019-01-28T09:00:30.619Z,97550.21
2019-01-28T09:02:57.746Z,97552.39
2019-01-28T09:05:24.774Z,97554.98
2019-01-28T09:07:51.233Z,97555.33
2019-01-28T09:10:22.391Z,97557.30
2019-01-28T09:12:48.751Z,97557.22
2019-01-28T09:15:18.578Z,97560.99
2019-01-28T09:17:45.167Z,97565.29
2019-01-28T09:20:15.767Z,97564.52
2019-01-28T09:22:42.548Z,97574.18
2019-01-28T09:25:12.373Z,97575.23
2019-01-28T09:27:38.739Z,97566.59
2019-01-28T09:30:16.700Z,97569.34
2019-01-28T09:32:43.331Z,97573.23
2019-01-28T09:35:09.767Z,97571.48
2019-01-28T09:37:36.184Z,97574.59
2019-01-28T09:40:08.100Z,97568.61
2019-01-28T09:42:34.423Z,97567.17
2019-01-28T09:45:00.753Z,97571.95
2019-01-28T09:47:27.178Z,97561.43
2019-01-28T09:49:53.616Z,97568.02
2019-01-28T09:52:20.185Z,97567.34
2019-01-28T09:54:46.666Z,97578.11
2019-01-28T09:57:12.992Z,97574.28
2019-01-28T09:59:39.549Z,97566.80
2019-01-28T10:02:06.370Z,97569.69
2019-01-28T10:04:32.657Z,97573.37
2019-01-28T10:06:59.098Z,97570.09
2019-01-28T10:09:25.492Z,97559.68
2019-01-28T10:11:51.870Z,97563.00
2019-01-28T10:14:18.534Z,97566.12
2019-01-28T10:16:45.139Z,97563.80
2019-01-28T10:19:11.698Z,97558.67
2019-01-28T10:21:38.380Z,97563.52
2019-01-28T10:24:04.909Z,97564.02
2019-01-28T10:26:32.209Z,97567.16
2019-01-28T10:28:58.844Z,97570.77
2019-01-28T10:31:27.180Z,97568.36
2019-01-28T10:33:53.563Z,97567.64
2019-01-28T10:36:22.740Z,97564.15
2019-01-28T10:38:48.524Z,97556.41
2019-01-28T10:41:14.837Z,97562.03
2019-01-28T10:43:41.158Z,97562.33
2019-01-28T10:46:07.466Z,97557.61
2019-01-28T10:48:34.026Z,97553.55
2019-01-28T10:51:00.639Z,97553.83
2019-01-28T10:53:26.971Z,97513.73
2019-01-28T10:55:53.551Z,97558.00
2019-01-28T10:58:19.891Z,97561.79
2019-01-28T11:00:47.290Z,97557.66
2019-01-28T11:03:16.020Z,97558.83
2019-01-28T11:05:43.332Z,97547.88
2019-01-28T11:08:09.648Z,97553.83
2019-01-28T11:10:36.001Z,97550.67
2019-01-28T11:13:05.248Z,97550.34
2019-01-28T11:15:31.717Z,97555.89
2019-01-28T11:18:12.664Z,97543.69
2019-01-28T11:20:39.382Z,97537.23
2019-01-28T11:23:05.842Z,97537.23
2019-01-28T11:25:32.248Z,97543.28
2019-01-28T11:27:58.987Z,97534.01
2019-01-28T11:30:39.301Z,97532.27
2019-01-28T11:33:06.735Z,97544.19
2019-01-28T11:35:35.612Z,97541.81
2019-01-28T11:38:03.264Z,97535.80
2019-01-28T11:40:29.954Z,97540.84
2019-01-28T11:42:56.296Z,97550.41
2019-01-28T11:45:33.421Z,97542.44
2019-01-28T11:47:59.847Z,97533.20
2019-01-28T11:50:26.873Z,97537.78
2019-01-28T11:52:53.448Z,97529.28
2019-01-28T11:55:20.034Z,97532.53
2019-01-28T11:57:46.378Z,97536.91
2019-01-28T12:00:26.406Z,97533.91
2019-01-28T12:02:52.711Z,97550.12
2019-01-28T12:05:19.278Z,97544.35
2019-01-28T12:07:46.613Z,97544.54
2019-01-28T12:10:13.426Z,97546.19
2019-01-28T12:12:39.715Z,97536.97
2019-01-28T12:15:16.340Z,97543.36
2019-01-28T12:17:42.643Z,97533.27
2019-01-28T12:20:11.855Z,97541.97
2019-01-28T12:22:38.602Z,97538.78
2019-01-28T12:25:09.461Z,97535.39
2019-01-28T12:27:36.002Z,97546.11
2019-01-28T12:30:08.071Z,97534.31
2019-01-28T12:32:34.383Z,97540.66
2019-01-28T12:35:01.002Z,97533.05
2019-01-28T12:37:27.394Z,97535.29
2019-01-28T12:39:53.911Z,97538.42
2019-01-28T12:42:20.243Z,97530.09
2019-01-28T12:44:46.869Z,97538.95
2019-01-28T12:47:13.419Z,97541.73
2019-01-28T12:49:40.046Z,97538.14
2019-01-28T12:52:07.629Z,97537.91
2019-01-28T12:54:33.931Z,97539.77
2019-01-28T12:57:00.527Z,97539.58
2019-01-28T12:59:27.080Z,97533.08
2019-01-28T13:01:53.704Z,97536.53
2019-01-28T13:04:20.275Z,97538.93
2019-01-28T13:06:46.615Z,97539.87
2019-01-28T13:09:14.221Z,97543.97
2019-01-28T13:11:40.606Z,97529.88
2019-01-28T13:14:07.218Z,97524.14
2019-01-28T13:16:33.784Z,97533.77
2019-01-28T13:19:00.476Z,97526.61
2019-01-28T13:21:27.040Z,97527.22
2019-01-28T13:23:53.693Z,97526.06
2019-01-28T13:26:20.059Z,97513.98
2019-01-28T13:28:46.647Z,97526.97
2019-01-28T13:31:13.239Z,97523.36
2019-01-28T13:33:39.556Z,97520.72
2019-01-28T13:36:09.502Z,97522.02
2019-01-28T13:38:34.730Z,97530.33
2019-01-28T13:41:01.370Z,97534.69
2019-01-28T13:43:27.715Z,97525.59
2019-01-28T13:45:54.054Z,97531.07
2019-01-28T13:48:20.612Z,97530.19
2019-01-28T13:50:47.118Z,97535.59
2019-01-28T13:53:13.452Z,97542.36
2019-01-28T13:55:39.767Z,97538.72
2019-01-28T13:58:06.459Z,97541.71
2019-01-28T14:00:33.271Z,97538.46
2019-01-28T14:03:00.258Z,97539.47
2019-01-28T14:05:27.056Z,97540.75
2019-01-28T14:07:54.521Z,97541.09
2019-01-28T14:10:23.226Z,97543.78
2019-01-28T14:12:49.750Z,97535.16
2019-01-28T14:15:35.312Z,97540.02
2019-01-28T14:18:02.063Z,97542.00
2019-01-28T14:20:34.958Z,97545.54
2019-01-28T14:23:01.267Z,97545.14
2019-01-28T14:25:27.853Z,97559.35
2019-01-28T14:27:54.446Z,97543.95
2019-01-28T14:30:38.308Z,97537.84
2019-01-28T14:33:05.849Z,97544.20
2019-01-28T14:35:32.538Z,97547.49
2019-01-28T14:37:59.056Z,97545.19
2019-01-28T14:40:27.807Z,97550.80
2019-01-28T14:42:55.108Z,97554.47
2019-01-28T14:45:21.631Z,97553.69
2019-01-28T14:47:48.206Z,97552.44
2019-01-28T14:50:21.603Z,97549.22
2019-01-28T14:52:48.206Z,97549.44
2019-01-28T14:55:14.506Z,97554.18
2019-01-28T14:57:41.215Z,97560.69
2019-01-28T15:00:15.626Z,97557.60
2019-01-28T15:02:42.270Z,97550.20
2019-01-28T15:05:10.814Z,97545.31
2019-01-28T15:07:37.830Z,97545.27
2019-01-28T15:10:17.958Z,97543.95
2019-01-28T15:12:47.594Z,97535.12
2019-01-28T15:15:18.209Z,97533.07
2019-01-28T15:17:44.853Z,97534.28
2019-01-28T15:20:11.640Z,97538.81
2019-01-28T15:22:38.814Z,97538.75
2019-01-28T15:25:09.640Z,97534.62
2019-01-28T15:27:36.342Z,97535.87
2019-01-28T15:30:20.004Z,97534.38
2019-01-28T15:32:46.815Z,97532.50
2019-01-28T15:35:13.227Z,97536.94
2019-01-28T15:37:39.918Z,97532.28
2019-01-28T15:40:14.735Z,97533.90
2019-01-28T15:42:41.108Z,97532.19
2019-01-28T15:45:14.506Z,97538.89
2019-01-28T15:47:41.049Z,97541.51
2019-01-28T15:50:11.674Z,97539.77
2019-01-28T15:52:38.019Z,97540.28
2019-01-28T15:55:12.719Z,97543.86
2019-01-28T15:57:39.379Z,97547.45
2019-01-28T16:00:14.217Z,97536.30
2019-01-28T16:02:40.906Z,97541.50
2019-01-28T16:05:08.638Z,97547.55
2019-01-28T16:07:35.269Z,97546.98
2019-01-28T16:10:02.052Z,97543.52
2019-01-28T16:12:28.379Z,97543.03
2019-01-28T16:14:54.927Z,97540.91
2019-01-28T16:17:21.526Z,97533.29
2019-01-28T16:19:48.113Z,97541.61
2019-01-28T16:22:14.712Z,97533.66
2019-01-28T16:24:41.051Z,97540.16
2019-01-28T16:27:07.641Z,97543.84
2019-01-28T16:29:34.239Z,97547.61
2019-01-28T16:32:01.057Z,97546.00
2019-01-28T16:34:27.552Z,97551.91
2019-01-28T16:36:54.120Z,97542.80
2019-01-28T16:39:20.487Z,97549.05
2019-01-28T16:41:46.784Z,97551.34
2019-01-28T16:44:13.494Z,97553.33
2019-01-28T16:46:41.062Z,97548.23
2019-01-28T16:49:07.704Z,97553.02
2019-01-28T16:51:34.281Z,97547.92
2019-01-28T16:54:00.856Z,97561.98
2019-01-28T16:56:28.137Z,97553.47
2019-01-28T16:58:54.926Z,97546.89
2019-01-28T17:01:21.243Z,97547.98
2019-01-28T17:03:48.051Z,97545.55
2019-01-28T17:06:14.709Z,97552.96
2019-01-28T17:08:41.045Z,97550.81
2019-01-28T17:11:07.380Z,97549.66
2019-01-28T17:13:33.703Z,97548.34
2019-01-28T17:16:00.256Z,97551.42
2019-01-28T17:18:26.576Z,97555.23
2019-01-28T17:20:52.953Z,97549.45
2019-01-28T17:23:19.265Z,97555.78
2019-01-28T17:25:46.529Z,97549.27
2019-01-28T17:28:13.129Z,97547.53
2019-01-28T17:30:45.681Z,97553.07
2019-01-28T17:33:11.993Z,97560.30
2019-01-28T17:35:38.791Z,97554.95
2019-01-28T17:38:06.898Z,97558.99
2019-01-28T17:40:33.706Z,97554.55
2019-01-28T17:43:00.139Z,97561.34
2019-01-28T17:45:27.673Z,97556.13
2019-01-28T17:47:54.404Z,97514.17
2019-01-28T17:50:24.604Z,97557.38
2019-01-28T17:52:49.073Z,97562.75
2019-01-28T17:55:15.856Z,97578.17
2019-01-28T17:57:42.703Z,97570.45
2019-01-28T18:00:14.724Z,97568.29
2019-01-28T18:02:41.504Z,97571.98
2019-01-28T18:05:09.067Z,97567.20
2019-01-28T18:07:35.498Z,97568.02
2019-01-28T18:10:04.390Z,97577.50
2019-01-28T18:12:31.846Z,97575.07
2019-01-28T18:14:58.239Z,97577.33
2019-01-28T18:17:24.603Z,97575.16
2019-01-28T18:19:52.322Z,97577.23
2019-01-28T18:22:18.916Z,97583.31
2019-01-28T18:24:45.676Z,97586.73
2019-01-28T18:27:12.289Z,97594.81
2019-01-28T18:29:38.627Z,97592.83
2019-01-28T18:32:05.244Z,97593.10
2019-01-28T18:34:31.845Z,97595.13
2019-01-28T18:36:58.146Z,97601.09
2019-01-28T18:39:24.460Z,97602.37
2019-01-28T18:41:51.049Z,97593.63
2019-01-28T18:44:17.374Z,97606.06
2019-01-28T18:46:43.700Z,97615.42
2019-01-28T18:49:10.018Z,97604.72
2019-01-28T18:51:36.334Z,97610.67
2019-01-28T18:54:03.237Z,97608.61
2019-01-28T18:56:29.589Z,97610.55
2019-01-28T18:59:01.226Z,97609.19
2019-01-28T19:01:30.736Z,97612.53
2019-01-28T19:03:57.177Z,97608.94
2019-01-28T19:06:28.447Z,97613.55
2019-01-28T19:18:58.494Z,97616.33
2019-01-28T19:21:29.710Z,97625.47
2019-01-28T19:23:56.307Z,97629.83
2019-01-28T19:26:23.070Z,97638.03
2019-01-28T19:28:49.481Z,97631.23
2019-01-28T19:31:16.841Z,97627.36
2019-01-28T19:33:43.397Z,97639.13
2019-01-28T19:36:10.032Z,97636.16
2019-01-28T19:38:36.695Z,97639.85
2019-01-28T19:41:03.570Z,97646.16
2019-01-28T19:43:30.116Z,97652.77
2019-01-28T19:45:56.461Z,97657.01
2019-01-28T19:48:23.252Z,97656.81
2019-01-28T19:50:51.706Z,97661.48
2019-01-28T19:53:18.300Z,97664.78
2019-01-28T19:55:44.859Z,97676.05
2019-01-28T19:58:11.479Z,97672.58
2019-01-28T20:00:37.782Z,97675.94
2019-01-28T20:03:05.801Z,97679.70
2019-01-28T20:05:32.123Z,97686.20
2019-01-28T20:07:58.564Z,97702.09
2019-01-28T20:10:25.168Z,97699.10
2019-01-28T20:12:51.850Z,97703.59
2019-01-28T20:15:22.019Z,97705.71
2019-01-28T20:17:48.605Z,97702.89
2019-01-28T20:20:17.584Z,97708.66
2019-01-28T20:22:44.122Z,97715.81
2019-01-28T20:25:13.691Z,97718.16
2019-01-28T20:27:40.643Z,97713.33
2019-01-28T20:30:17.210Z,97718.33
2019-01-28T20:32:43.970Z,97724.13
2019-01-28T20:35:12.490Z,97724.82
2019-01-28T20:37:38.857Z,97721.58
2019-01-28T20:40:09.525Z,97736.97
2019-01-28T20:42:35.892Z,97739.00
2019-01-28T20:45:05.649Z,97731.31
2019-01-28T20:47:32.965Z,97756.91
2019-01-28T20:49:59.408Z,97753.73
2019-01-28T20:52:25.999Z,97753.63
2019-01-28T20:54:52.822Z,97756.98
2019-01-28T20:57:19.402Z,97760.50
2019-01-28T20:59:46.070Z,97768.41
2019-01-28T21:02:12.371Z,97768.98
2019-01-28T21:04:38.997Z,97772.37
2019-01-28T21:07:05.372Z,97779.86
2019-01-28T21:09:31.955Z,97774.95
2019-01-28T21:11:58.474Z,97779.51
2019-01-28T21:14:24.930Z,97780.92
2019-01-28T21:16:51.474Z,97789.67
2019-01-28T21:19:17.779Z,97795.14
2019-01-28T21:21:44.150Z,97806.34
2019-01-28T21:24:10.711Z,97800.77
2019-01-28T21:26:37.294Z,97800.34
2019-01-28T21:29:03.811Z,97807.48
2019-01-28T21:31:30.438Z,97807.92
2019-01-28T21:33:57.064Z,97806.03
2019-01-28T21:36:25.568Z,97815.12
2019-01-28T21:38:52.163Z,97821.72
2019-01-28T21:41:18.762Z,97818.91
2019-01-28T21:43:45.277Z,97821.11
2019-01-28T21:46:11.575Z,97823.96
2019-01-28T21:48:37.918Z,97831.27
2019-01-28T21:51:04.435Z,97831.27
2019-01-28T21:53:31.111Z,97835.34
2019-01-28T21:55:57.475Z,97836.30
2019-01-28T21:58:24.022Z,97837.15
2019-01-28T22:00:50.389Z,97836.48
2019-01-28T22:03:17.080Z,97845.97
2019-01-28T22:05:43.520Z,97845.33
2019-01-28T22:08:10.135Z,97847.89
2019-01-28T22:10:36.895Z,97854.98
2019-01-28T22:13:03.692Z,97853.05
2019-01-28T22:15:30.024Z,97855.87
2019-01-28T22:17:56.346Z,97861.95
2019-01-28T22:20:22.684Z,97868.00
2019-01-28T22:22:48.996Z,97862.20
2019-01-28T22:25:16.140Z,97866.16
2019-01-28T22:27:42.787Z,97870.71
2019-01-28T22:30:22.825Z,97874.53
2019-01-28T22:32:49.555Z,97873.75
2019-01-28T22:35:16.479Z,97879.67
2019-01-28T22:37:42.825Z,97880.48
2019-01-28T22:40:15.264Z,97880.91
2019-01-28T22:42:41.877Z,97886.41
2019-01-28T22:45:14.996Z,97894.44
2019-01-28T22:47:41.556Z,97894.08
2019-01-28T22:50:13.198Z,97896.73
2019-01-28T22:52:39.856Z,97901.42
2019-01-28T22:55:09.688Z,97905.63
2019-01-28T22:57:36.368Z,97904.06
2019-01-28T23:00:21.698Z,97908.58
2019-01-28T23:02:49.944Z,97909.92
2019-01-28T23:05:16.281Z,97905.96
2019-01-28T23:07:43.360Z,97917.14
2019-01-28T23:10:10.067Z,97922.62
2019-01-28T23:12:36.453Z,97912.76
2019-01-28T23:15:08.969Z,97915.92
2019-01-28T23:17:35.543Z,97919.80
2019-01-28T23:20:03.801Z,97916.98
2019-01-28T23:22:30.409Z,97935.28
2019-01-28T23:24:56.976Z,97939.02
2019-01-28T23:27:23.346Z,97942.23
2019-01-28T23:29:49.641Z,97947.62
2019-01-28T23:32:16.238Z,97955.44
2019-01-28T23:34:42.532Z,97955.44
2019-01-28T23:37:09.087Z,97960.95
2019-01-28T23:39:35.416Z,97965.98
2019-01-28T23:42:03.664Z,97967.15
2019-01-28T23:44:29.993Z,97968.02
2019-01-28T23:46:56.310Z,97982.36
2019-01-28T23:49:22.634Z,97977.19
2019-01-28T23:51:48.938Z,97980.61
2019-01-28T23:54:15.266Z,97975.32
2019-01-28T23:56:41.870Z,97983.33
2019-01-28T23:59:08.512Z,97987.80
